createdAt,value
2018-02-20T00:01:44.802Z,-0.50
2018-02-20T00:04:12.342Z,-0.50
2018-02-20T00:06:39.893Z,-0.60
2018-02-20T00:09:07.489Z,-0.60
2018-02-20T00:11:35.070Z,-0.50
2018-02-20T00:14:02.590Z,-0.60
2018-02-20T00:16:30.126Z,-0.70
2018-02-20T00:18:57.746Z,-0.70
2018-02-20T00:21:25.263Z,-0.80
2018-02-20T00:23:52.849Z,-0.70
2018-02-20T00:26:20.394Z,-0.70
2018-02-20T00:28:47.925Z,-0.70
2018-02-20T00:31:16.027Z,-0.70
2018-02-20T00:33:43.572Z,-0.70
2018-02-20T00:36:11.175Z,-0.80
2018-02-20T00:38:39.484Z,-0.90
2018-02-20T00:41:07.013Z,-0.90
2018-02-20T00:43:35.366Z,-1.00
2018-02-20T00:46:02.917Z,-1.00
2018-02-20T00:48:30.462Z,-1.00
2018-02-20T00:50:57.985Z,-1.00
2018-02-20T00:53:25.545Z,-0.90
2018-02-20T00:55:53.162Z,-0.80
2018-02-20T00:58:20.694Z,-0.80
2018-02-20T01:00:48.230Z,-0.90
2018-02-20T01:03:16.710Z,-1.10
2018-02-20T01:05:44.233Z,-1.10
2018-02-20T01:08:11.763Z,-1.10
2018-02-20T01:10:39.302Z,-1.20
2018-02-20T01:13:06.864Z,-1.20
2018-02-20T01:15:34.402Z,-1.10
2018-02-20T01:18:01.943Z,-1.10
2018-02-20T01:20:29.552Z,-1.10
2018-02-20T01:22:57.088Z,-1.10
2018-02-20T01:25:24.636Z,-1.00
2018-02-20T01:27:52.185Z,-0.90
2018-02-20T01:30:19.734Z,-1.00
2018-02-20T01:32:48.738Z,-1.00
2018-02-20T01:35:18.465Z,-1.00
2018-02-20T01:37:47.065Z,-1.00
2018-02-20T01:40:14.597Z,-1.00
2018-02-20T01:42:42.118Z,-0.90
2018-02-20T01:45:10.414Z,-0.90
2018-02-20T01:47:37.961Z,-0.90
2018-02-20T01:50:05.502Z,-0.90
2018-02-20T01:52:33.849Z,-0.90
2018-02-20T01:55:01.414Z,-0.90
2018-02-20T01:57:28.999Z,-0.80
2018-02-20T01:59:57.284Z,-0.70
2018-02-20T02:02:25.575Z,-0.70
2018-02-20T02:04:53.147Z,-0.70
2018-02-20T02:07:20.690Z,-0.80
2018-02-20T02:09:48.276Z,-0.80
2018-02-20T02:12:15.897Z,-1.20
2018-02-20T02:14:44.199Z,-1.20
2018-02-20T02:17:11.748Z,-1.20
2018-02-20T02:19:39.304Z,-1.00
2018-02-20T02:22:06.882Z,-0.90
2018-02-20T02:24:34.428Z,-0.90
2018-02-20T02:27:01.995Z,-0.80
2018-02-20T02:29:29.530Z,-0.80
2018-02-20T02:31:57.099Z,-0.80
2018-02-20T02:34:24.646Z,-0.80
2018-02-20T02:36:52.164Z,-1.00
2018-02-20T02:39:20.510Z,-0.60
2018-02-20T02:41:48.867Z,-0.70
2018-02-20T02:44:16.475Z,-0.70
2018-02-20T02:46:44.023Z,-0.70
2018-02-20T02:49:12.339Z,-1.00
2018-02-20T02:51:39.932Z,-1.00
2018-02-20T02:54:07.471Z,-1.00
2018-02-20T02:56:35.038Z,-1.20
2018-02-20T02:59:02.597Z,-1.10
2018-02-20T03:01:30.133Z,-1.00
2018-02-20T03:03:57.722Z,-1.00
2018-02-20T03:06:25.861Z,-1.00
2018-02-20T03:08:53.435Z,-1.20
2018-02-20T03:11:20.999Z,-1.10
2018-02-20T03:13:48.526Z,-1.20
2018-02-20T03:16:18.070Z,-1.30
2018-02-20T03:18:46.421Z,-1.30
2018-02-20T03:21:14.712Z,-1.30
2018-02-20T03:23:42.303Z,-1.50
2018-02-20T03:26:09.822Z,-1.20
2018-02-20T03:28:37.380Z,-1.00
2018-02-20T03:31:04.917Z,-0.90
2018-02-20T03:33:32.453Z,-1.00
2018-02-20T03:35:59.976Z,-1.10
2018-02-20T03:38:27.489Z,-1.00
2018-02-20T03:40:55.039Z,-1.30
2018-02-20T03:43:23.341Z,-1.30
2018-02-20T03:45:50.935Z,-1.30
2018-02-20T03:48:18.518Z,-1.20
2018-02-20T03:50:47.989Z,-0.90
2018-02-20T03:53:16.326Z,-1.00
2018-02-20T03:55:43.870Z,-1.00
2018-02-20T03:58:11.443Z,-1.10
2018-02-20T04:00:38.969Z,-1.10
2018-02-20T04:03:07.359Z,-1.10
2018-02-20T04:05:35.704Z,-1.00
2018-02-20T04:08:03.250Z,-1.10
2018-02-20T04:10:30.806Z,-1.20
2018-02-20T04:12:58.368Z,-1.40
2018-02-20T04:15:25.928Z,-1.40
2018-02-20T04:17:53.468Z,-1.40
2018-02-20T04:20:21.019Z,-1.40
2018-02-20T04:22:48.546Z,-1.30
2018-02-20T04:25:17.970Z,-1.40
2018-02-20T04:27:45.954Z,-1.40
2018-02-20T04:30:13.565Z,-1.40
2018-02-20T04:32:41.854Z,-1.50
2018-02-20T04:35:09.417Z,-1.50
2018-02-20T04:37:36.952Z,-1.50
2018-02-20T04:40:05.259Z,-1.40
2018-02-20T04:42:33.601Z,-1.50
2018-02-20T04:45:01.158Z,-1.50
2018-02-20T04:47:29.510Z,-1.40
2018-02-20T04:49:57.023Z,-1.40
2018-02-20T04:52:24.647Z,-1.30
2018-02-20T04:54:52.173Z,-1.30
2018-02-20T04:57:19.725Z,-1.30
2018-02-20T04:59:48.215Z,-1.40
2018-02-20T05:02:16.767Z,-1.20
2018-02-20T05:04:44.310Z,-1.20
2018-02-20T05:07:12.672Z,-1.30
2018-02-20T05:09:40.222Z,-1.40
2018-02-20T05:12:07.774Z,-1.40
2018-02-20T05:14:35.318Z,-1.60
2018-02-20T05:17:02.864Z,-1.60
2018-02-20T05:19:30.475Z,-1.50
2018-02-20T05:21:57.995Z,-1.60
2018-02-20T05:24:25.518Z,-1.50
2018-02-20T05:26:53.057Z,-1.70
2018-02-20T05:29:20.599Z,-1.70
2018-02-20T05:31:48.938Z,-1.50
2018-02-20T05:34:16.475Z,-1.50
2018-02-20T05:36:44.009Z,-1.40
2018-02-20T05:39:11.608Z,-1.40
2018-02-20T05:41:39.137Z,-1.30
2018-02-20T05:44:06.663Z,-1.40
2018-02-20T05:46:34.980Z,-1.20
2018-02-20T05:49:02.531Z,-1.20
2018-02-20T05:51:30.170Z,-1.20
2018-02-20T05:53:57.698Z,-1.20
2018-02-20T05:56:26.012Z,-1.30
2018-02-20T05:58:53.547Z,-1.40
2018-02-20T06:01:21.106Z,-1.40
2018-02-20T06:03:48.654Z,-1.30
2018-02-20T06:06:18.235Z,-1.40
2018-02-20T06:08:46.626Z,-1.40
2018-02-20T06:11:14.140Z,-1.20
2018-02-20T06:13:41.756Z,-1.20
2018-02-20T06:16:10.061Z,-1.20
2018-02-20T06:18:37.614Z,-1.20
2018-02-20T06:21:05.162Z,-1.20
2018-02-20T06:23:33.104Z,-1.20
2018-02-20T06:26:01.443Z,-1.20
2018-02-20T06:28:28.963Z,-1.20
2018-02-20T06:30:56.507Z,-1.40
2018-02-20T06:33:24.809Z,-1.30
2018-02-20T06:35:52.371Z,-1.30
2018-02-20T06:38:19.915Z,-1.20
2018-02-20T06:40:47.445Z,-1.00
2018-02-20T06:43:16.768Z,-1.10
2018-02-20T06:45:44.479Z,-1.10
2018-02-20T06:48:12.027Z,-1.20
2018-02-20T06:50:39.589Z,-1.20
2018-02-20T06:53:07.189Z,-1.10
2018-02-20T06:55:35.512Z,-1.10
2018-02-20T06:58:03.072Z,-1.10
2018-02-20T07:00:30.600Z,-1.00
2018-02-20T07:02:58.136Z,-1.10
2018-02-20T07:05:26.455Z,-1.10
2018-02-20T07:07:53.996Z,-1.10
2018-02-20T07:10:21.520Z,-0.90
2018-02-20T07:12:49.811Z,-1.00
2018-02-20T07:15:17.861Z,-1.00
2018-02-20T07:17:45.883Z,-1.10
2018-02-20T07:20:13.396Z,-1.00
2018-02-20T07:22:41.726Z,-1.00
2018-02-20T07:25:09.315Z,-1.00
2018-02-20T07:27:37.669Z,-0.80
2018-02-20T07:30:05.258Z,-0.80
2018-02-20T07:32:32.878Z,-0.90
2018-02-20T07:35:00.439Z,-0.90
2018-02-20T07:37:28.008Z,-0.70
2018-02-20T07:39:55.522Z,-0.70
2018-02-20T07:42:23.141Z,-0.70
2018-02-20T07:44:50.694Z,-0.70
2018-02-20T07:47:18.643Z,-0.70
2018-02-20T07:49:47.196Z,-0.60
2018-02-20T07:52:14.718Z,-0.50
2018-02-20T07:54:42.996Z,-0.60
2018-02-20T07:57:11.334Z,-0.40
2018-02-20T07:59:38.859Z,-0.40
2018-02-20T08:02:06.434Z,-0.50
2018-02-20T08:04:33.959Z,-0.70
2018-02-20T08:07:01.489Z,-0.60
2018-02-20T08:09:29.795Z,-0.60
2018-02-20T08:11:57.311Z,-0.60
2018-02-20T08:14:24.860Z,-0.40
2018-02-20T08:16:52.407Z,-0.40
2018-02-20T08:19:19.937Z,-0.40
2018-02-20T08:21:47.462Z,-0.40
2018-02-20T08:24:16.989Z,0.00
2018-02-20T08:26:44.530Z,0.00
2018-02-20T08:29:12.835Z,-0.20
2018-02-20T08:31:40.377Z,-0.20
2018-02-20T08:34:08.039Z,-0.20
2018-02-20T08:36:35.575Z,-0.20
2018-02-20T08:39:03.869Z,-0.10
2018-02-20T08:41:31.391Z,-0.10
2018-02-20T08:43:59.709Z,0.10
2018-02-20T08:46:27.211Z,0.10
2018-02-20T08:48:54.733Z,0.00
2018-02-20T08:51:22.256Z,0.00
2018-02-20T08:53:50.538Z,-0.10
2018-02-20T08:56:18.505Z,-0.10
2018-02-20T08:58:47.935Z,-0.10
2018-02-20T09:01:15.907Z,-0.10
2018-02-20T09:03:43.495Z,-0.10
2018-02-20T09:06:12.145Z,-0.10
2018-02-20T09:08:39.669Z,-0.20
2018-02-20T09:11:07.209Z,0.00
2018-02-20T09:13:35.519Z,0.30
2018-02-20T09:16:03.055Z,0.30
2018-02-20T09:18:31.342Z,0.50
2018-02-20T09:20:58.868Z,0.50
2018-02-20T09:23:26.404Z,0.50
2018-02-20T09:25:53.940Z,0.50
2018-02-20T09:28:21.463Z,0.20
2018-02-20T09:30:49.741Z,0.20
2018-02-20T09:33:18.232Z,0.20
2018-02-20T09:35:47.032Z,0.20
2018-02-20T09:38:14.564Z,0.30
2018-02-20T09:40:42.853Z,0.20
2018-02-20T09:43:10.367Z,0.20
2018-02-20T09:45:38.697Z,0.10
2018-02-20T09:48:06.190Z,0.10
2018-02-20T09:50:33.708Z,0.30
2018-02-20T09:53:01.242Z,0.40
2018-02-20T09:55:29.515Z,0.60
2018-02-20T09:57:57.799Z,0.50
2018-02-20T10:00:26.073Z,0.40
2018-02-20T10:02:54.365Z,0.40
2018-02-20T10:05:21.886Z,0.30
2018-02-20T10:07:50.157Z,0.60
2018-02-20T10:10:19.031Z,0.60
2018-02-20T10:12:47.728Z,0.50
2018-02-20T10:15:15.849Z,0.30
2018-02-20T10:17:43.387Z,0.40
2018-02-20T10:20:10.898Z,0.60
2018-02-20T10:22:38.422Z,0.60
2018-02-20T10:25:05.947Z,0.60
2018-02-20T10:27:34.228Z,0.30
2018-02-20T10:30:02.514Z,0.30
2018-02-20T10:32:30.028Z,0.30
2018-02-20T10:34:57.550Z,0.50
2018-02-20T10:37:25.090Z,0.80
2018-02-20T10:39:52.635Z,0.70
2018-02-20T10:42:20.176Z,0.90
2018-02-20T10:44:48.747Z,0.80
2018-02-20T10:47:16.738Z,0.80
2018-02-20T10:49:44.272Z,1.10
2018-02-20T10:52:11.796Z,1.00
2018-02-20T10:54:39.350Z,1.20
2018-02-20T10:57:06.867Z,1.30
2018-02-20T10:59:34.388Z,1.30
2018-02-20T11:02:02.681Z,1.00
2018-02-20T11:04:30.982Z,0.90
2018-02-20T11:06:59.609Z,1.00
2018-02-20T11:09:28.348Z,0.70
2018-02-20T11:11:56.210Z,0.70
2018-02-20T11:14:24.181Z,0.90
2018-02-20T11:16:52.116Z,0.80
2018-02-20T11:19:20.608Z,0.80
2018-02-20T11:21:48.167Z,1.00
2018-02-20T11:24:16.854Z,1.10
2018-02-20T11:26:45.887Z,1.20
2018-02-20T11:29:13.460Z,1.20
2018-02-20T11:31:40.985Z,1.10
2018-02-20T11:34:09.275Z,1.00
2018-02-20T11:36:36.807Z,0.90
2018-02-20T11:39:04.326Z,1.00
2018-02-20T11:41:31.850Z,0.90
2018-02-20T11:44:00.152Z,1.20
2018-02-20T11:46:27.691Z,1.20
2018-02-20T11:48:55.211Z,1.40
2018-02-20T11:51:22.770Z,1.20
2018-02-20T11:53:50.279Z,1.10
2018-02-20T11:56:17.801Z,1.20
2018-02-20T11:58:45.783Z,1.30
2018-02-20T12:01:13.287Z,1.30
2018-02-20T12:03:40.885Z,1.40
2018-02-20T12:06:09.168Z,1.60
2018-02-20T12:08:36.694Z,1.60
2018-02-20T12:11:04.982Z,1.50
2018-02-20T12:13:32.579Z,1.50
2018-02-20T12:16:00.126Z,1.80
2018-02-20T12:18:27.688Z,1.80
2018-02-20T12:20:55.286Z,2.10
2018-02-20T12:23:23.573Z,2.30
2018-02-20T12:25:51.163Z,2.30
2018-02-20T12:28:18.687Z,2.40
2018-02-20T12:30:48.026Z,2.30
2018-02-20T12:33:16.199Z,2.30
2018-02-20T12:35:43.722Z,2.10
2018-02-20T12:38:11.278Z,2.00
2018-02-20T12:40:38.812Z,1.90
2018-02-20T12:43:06.325Z,1.60
2018-02-20T12:45:33.841Z,2.00
2018-02-20T12:48:02.153Z,2.00
2018-02-20T12:50:29.646Z,2.00
2018-02-20T12:52:57.201Z,1.70
2018-02-20T12:55:25.508Z,1.80
2018-02-20T12:57:53.037Z,1.80
2018-02-20T13:00:20.569Z,1.70
2018-02-20T13:02:48.119Z,1.50
2018-02-20T13:05:16.302Z,1.50
2018-02-20T13:07:43.854Z,1.80
2018-02-20T13:10:11.383Z,1.70
2018-02-20T13:12:38.915Z,1.70
2018-02-20T13:15:07.216Z,1.00
2018-02-20T13:17:34.730Z,1.00
2018-02-20T13:20:02.244Z,1.10
2018-02-20T13:22:29.761Z,1.10
2018-02-20T13:24:58.037Z,1.20
2018-02-20T13:27:25.570Z,1.20
2018-02-20T13:29:53.081Z,1.00
2018-02-20T13:32:20.589Z,1.10
2018-02-20T13:34:48.113Z,1.50
2018-02-20T13:37:16.286Z,1.40
2018-02-20T13:39:43.799Z,1.50
2018-02-20T13:42:12.135Z,1.30
2018-02-20T13:44:39.682Z,1.30
2018-02-20T13:47:07.200Z,1.00
2018-02-20T13:49:35.486Z,1.00
2018-02-20T13:52:03.019Z,1.00
2018-02-20T13:54:31.303Z,1.20
2018-02-20T13:56:59.590Z,1.20
2018-02-20T13:59:27.114Z,1.30
2018-02-20T14:01:54.615Z,1.40
2018-02-20T14:04:22.134Z,1.10
2018-02-20T14:06:50.417Z,1.00
2018-02-20T14:09:18.702Z,1.10
2018-02-20T14:11:47.496Z,0.90
2018-02-20T14:14:15.024Z,0.90
2018-02-20T14:16:42.571Z,0.90
2018-02-20T14:19:10.117Z,0.70
2018-02-20T14:21:37.711Z,0.70
2018-02-20T14:24:05.991Z,0.60
2018-02-20T14:26:33.520Z,0.60
2018-02-20T14:29:01.040Z,0.60
2018-02-20T14:31:28.546Z,0.60
2018-02-20T14:33:56.051Z,0.50
2018-02-20T14:36:23.618Z,0.70
2018-02-20T14:38:51.127Z,0.70
2018-02-20T14:41:19.507Z,0.60
2018-02-20T14:43:47.838Z,0.70
2018-02-20T14:46:15.893Z,0.70
2018-02-20T14:48:43.520Z,0.40
2018-02-20T14:51:11.073Z,0.40
2018-02-20T14:53:39.377Z,0.40
2018-02-20T14:56:06.891Z,0.40
2018-02-20T14:58:34.410Z,0.40
2018-02-20T15:01:01.942Z,0.20
2018-02-20T15:03:29.470Z,0.20
2018-02-20T15:05:57.868Z,0.30
2018-02-20T15:08:25.424Z,0.30
2018-02-20T15:10:52.990Z,0.40
2018-02-20T15:13:20.547Z,0.20
2018-02-20T15:15:48.100Z,0.10
2018-02-20T15:18:16.681Z,0.20
2018-02-20T15:20:44.244Z,0.00
2018-02-20T15:23:11.761Z,-0.10
2018-02-20T15:25:39.276Z,-0.20
2018-02-20T15:28:06.807Z,-0.10
2018-02-20T15:30:35.098Z,-0.20
2018-02-20T15:33:02.633Z,-0.30
2018-02-20T15:35:30.921Z,-0.30
2018-02-20T15:37:58.491Z,-0.40
2018-02-20T15:40:26.018Z,-0.30
2018-02-20T15:42:54.360Z,-0.30
2018-02-20T15:45:21.962Z,-0.30
2018-02-20T15:47:49.539Z,-0.20
2018-02-20T15:50:17.926Z,-0.30
2018-02-20T15:52:45.473Z,-0.40
2018-02-20T15:55:12.999Z,-0.30
2018-02-20T15:57:41.281Z,-0.40
2018-02-20T16:00:09.579Z,-0.40
2018-02-20T16:02:37.095Z,-0.40
2018-02-20T16:05:04.618Z,-0.30
2018-02-20T16:07:32.186Z,-0.30
2018-02-20T16:09:59.718Z,-0.30
2018-02-20T16:12:27.252Z,-0.30
2018-02-20T16:14:57.805Z,-0.30
2018-02-20T16:17:25.362Z,-0.30
2018-02-20T16:19:52.922Z,-0.30
2018-02-20T16:22:20.509Z,-0.20
2018-02-20T16:24:48.055Z,-0.30
2018-02-20T16:27:16.005Z,-0.40
2018-02-20T16:29:43.613Z,-0.40
2018-02-20T16:32:11.151Z,-0.50
2018-02-20T16:34:38.726Z,-0.50
2018-02-20T16:37:07.049Z,-0.60
2018-02-20T16:39:34.576Z,-0.60
2018-02-20T16:42:02.911Z,-0.50
2018-02-20T16:44:30.459Z,-0.50
2018-02-20T16:46:58.032Z,-0.50
2018-02-20T16:49:25.570Z,-0.50
2018-02-20T16:51:53.102Z,-0.40
2018-02-20T16:54:20.663Z,-0.50
2018-02-20T16:56:48.179Z,-0.50
2018-02-20T16:59:16.803Z,-0.40
2018-02-20T17:01:44.352Z,-0.30
2018-02-20T17:04:11.952Z,-0.40
2018-02-20T17:06:39.490Z,-0.50
2018-02-20T17:09:07.062Z,-0.50
2018-02-20T17:11:34.611Z,-0.60
2018-02-20T17:14:02.205Z,-0.70
2018-02-20T17:16:29.768Z,-0.70
2018-02-20T17:18:57.297Z,-0.80
2018-02-20T17:21:24.816Z,-0.60
2018-02-20T17:23:52.347Z,-0.60
2018-02-20T17:26:19.913Z,-0.60
2018-02-20T17:28:48.210Z,-0.80
2018-02-20T17:31:16.993Z,-0.80
2018-02-20T17:33:44.537Z,-0.70
2018-02-20T17:36:12.851Z,-0.70
2018-02-20T17:38:40.437Z,-0.70
2018-02-20T17:41:07.964Z,-0.70
2018-02-20T17:43:35.553Z,-0.70
2018-02-20T17:46:03.143Z,-0.60
2018-02-20T17:48:31.453Z,-0.40
2018-02-20T17:50:58.976Z,-0.40
2018-02-20T17:53:26.588Z,-0.30
2018-02-20T17:55:54.152Z,-0.20
2018-02-20T17:58:21.731Z,-0.20
2018-02-20T18:00:49.260Z,-0.40
2018-02-20T18:03:17.923Z,-0.40
2018-02-20T18:05:46.002Z,-0.40
2018-02-20T18:08:14.823Z,-0.40
2018-02-20T18:10:42.359Z,-0.40
2018-02-20T18:13:09.937Z,-0.40
2018-02-20T18:15:37.500Z,-0.30
2018-02-20T18:18:05.053Z,-0.40
2018-02-20T18:20:32.574Z,-0.50
2018-02-20T18:23:00.127Z,-0.60
2018-02-20T18:25:27.684Z,-0.50
2018-02-20T18:27:55.237Z,-0.60
2018-02-20T18:30:22.763Z,-0.50
2018-02-20T18:32:51.042Z,-0.50
2018-02-20T18:35:20.417Z,-0.60
2018-02-20T18:37:47.988Z,-0.60
2018-02-20T18:40:16.012Z,-0.60
2018-02-20T18:42:44.247Z,-0.60
2018-02-20T18:45:12.556Z,-0.60
2018-02-20T18:47:40.189Z,-0.60
2018-02-20T18:50:07.782Z,-0.60
2018-02-20T18:52:35.324Z,-0.80
2018-02-20T18:55:02.929Z,-0.80
2018-02-20T18:57:31.337Z,-0.70
2018-02-20T18:59:58.943Z,-0.70
2018-02-20T19:02:26.513Z,-0.60
2018-02-20T19:04:54.845Z,-0.40
2018-02-20T19:07:22.741Z,-0.50
2018-02-20T19:09:50.284Z,-0.60
2018-02-20T19:12:19.526Z,-0.60
2018-02-20T19:14:48.280Z,-0.70
2018-02-20T19:17:15.899Z,-0.80
2018-02-20T19:19:44.303Z,-0.80
2018-02-20T19:22:11.837Z,-0.80
2018-02-20T19:24:40.142Z,-0.90
2018-02-20T19:27:13.458Z,-0.90
2018-02-20T19:29:42.040Z,-0.90
2018-02-20T19:32:09.617Z,-1.00
2018-02-20T19:34:37.207Z,-1.10
2018-02-20T19:37:05.536Z,-1.00
2018-02-20T19:39:33.095Z,-1.00
2018-02-20T19:42:00.628Z,-0.90
2018-02-20T19:44:28.215Z,-0.90
2018-02-20T19:46:55.809Z,-1.00
2018-02-20T19:49:23.358Z,-0.90
2018-02-20T19:51:51.675Z,-1.10
2018-02-20T19:54:19.232Z,-1.10
2018-02-20T19:56:48.020Z,-1.10
2018-02-20T19:59:16.766Z,-1.10
2018-02-20T20:01:45.099Z,-1.10
2018-02-20T20:04:14.098Z,-1.10
2018-02-20T20:06:41.650Z,-1.10
2018-02-20T20:09:09.192Z,-1.20
2018-02-20T20:11:36.784Z,-1.00
2018-02-20T20:14:04.376Z,-0.90
2018-02-20T20:16:31.925Z,-0.90
2018-02-20T20:18:59.539Z,-1.00
2018-02-20T20:21:27.189Z,-1.00
2018-02-20T20:23:54.730Z,-1.20
2018-02-20T20:26:22.300Z,-1.10
2018-02-20T20:28:49.870Z,-1.10
2018-02-20T20:31:18.520Z,-1.00
2018-02-20T20:33:47.305Z,-1.00
2018-02-20T20:36:14.840Z,-0.90
2018-02-20T20:38:43.162Z,-0.90
2018-02-20T20:41:10.695Z,-0.90
2018-02-20T20:43:38.276Z,-0.90
2018-02-20T20:46:05.847Z,-1.00
2018-02-20T20:48:33.418Z,-1.10
2018-02-20T20:51:00.971Z,-1.00
2018-02-20T20:53:28.516Z,-0.80
2018-02-20T20:55:56.092Z,-0.80
2018-02-20T20:58:23.643Z,-0.90
2018-02-20T21:00:51.198Z,-0.90
2018-02-20T21:03:18.732Z,-0.90
2018-02-20T21:05:46.810Z,-1.00
2018-02-20T21:08:14.372Z,-1.20
2018-02-20T21:10:41.934Z,-1.20
2018-02-20T21:13:09.502Z,-1.10
2018-02-20T21:15:37.047Z,-1.10
2018-02-20T21:18:04.630Z,-1.10
2018-02-20T21:20:32.218Z,-1.10
2018-02-20T21:23:00.537Z,-1.30
2018-02-20T21:25:28.076Z,-1.30
2018-02-20T21:27:55.610Z,-1.20
2018-02-20T21:30:23.962Z,-1.10
2018-02-20T21:32:51.547Z,-1.10
2018-02-20T21:35:19.855Z,-0.90
2018-02-20T21:37:48.677Z,-1.00
2018-02-20T21:40:17.703Z,-1.00
2018-02-20T21:42:47.524Z,-1.10
2018-02-20T21:45:15.101Z,-1.00
2018-02-20T21:47:42.667Z,-1.00
2018-02-20T21:50:10.192Z,-1.00
2018-02-20T21:52:37.780Z,-0.90
2018-02-20T21:55:05.354Z,-0.90
2018-02-20T21:57:32.888Z,-0.90
2018-02-20T22:00:00.422Z,-0.90
2018-02-20T22:02:27.971Z,-1.00
2018-02-20T22:04:56.254Z,-1.10
2018-02-20T22:07:24.559Z,-1.10
2018-02-20T22:09:52.106Z,-1.10
2018-02-20T22:12:19.668Z,-1.00
2018-02-20T22:14:48.327Z,-0.80
2018-02-20T22:17:17.504Z,-0.70
2018-02-20T22:19:45.042Z,-0.70
2018-02-20T22:22:12.587Z,-0.60
2018-02-20T22:24:40.120Z,-0.70
2018-02-20T22:27:07.679Z,-0.70
2018-02-20T22:29:35.220Z,-0.60
2018-02-20T22:32:02.753Z,-0.60
2018-02-20T22:34:31.089Z,-0.60
2018-02-20T22:36:58.662Z,-0.60
2018-02-20T22:39:26.221Z,-0.60
2018-02-20T22:41:53.785Z,-0.50
2018-02-20T22:44:21.329Z,-0.50
2018-02-20T22:46:48.864Z,-0.50
2018-02-20T22:49:16.437Z,-0.50
2018-02-20T22:51:43.990Z,-0.60
2018-02-20T22:54:11.521Z,-0.50
2018-02-20T22:56:39.053Z,-0.50
2018-02-20T22:59:07.429Z,-0.60
2018-02-20T23:01:35.716Z,-0.50
2018-02-20T23:04:04.095Z,-0.40
2018-02-20T23:06:31.661Z,-0.40
2018-02-20T23:08:59.268Z,-0.30
2018-02-20T23:11:38.578Z,-0.40
2018-02-20T23:14:06.110Z,-0.50
2018-02-20T23:16:33.638Z,-0.40
2018-02-20T23:19:01.200Z,-0.30
2018-02-20T23:21:28.722Z,-0.40
2018-02-20T23:23:56.250Z,-0.30
2018-02-20T23:26:23.766Z,-0.60
2018-02-20T23:28:51.291Z,-0.70
2018-02-20T23:31:18.836Z,-0.60
2018-02-20T23:33:46.375Z,-0.60
2018-02-20T23:36:13.905Z,-0.50
2018-02-20T23:38:41.455Z,-0.60
2018-02-20T23:41:09.812Z,-0.80
2018-02-20T23:43:37.383Z,-0.80
2018-02-20T23:46:04.926Z,-0.80
2018-02-20T23:48:32.456Z,-0.70
2018-02-20T23:51:05.668Z,-0.70
2018-02-20T23:53:33.199Z,-0.60
2018-02-20T23:56:00.757Z,-0.70
2018-02-20T23:58:28.278Z,-0.70
